sensor_id;sensor_type;location;lat;lon;timestamp;P1;durP1;ratioP1;P2;durP2;ratioP2
3689;SDS011;1861;50.240;8.596;2022-10-31T00:01:34;3.60;;;2.05;;
3689;SDS011;1861;50.240;8.596;2022-10-31T00:04:05;8.17;;;2.50;;
3689;SDS011;1861;50.240;8.596;2022-10-31T00:06:33;12.20;;;2.40;;
3689;SDS011;1861;50.240;8.596;2022-10-31T00:09:02;11.27;;;3.27;;
3689;SDS011;1861;50.240;8.596;2022-10-31T00:11:31;6.30;;;2.70;;
3689;SDS011;1861;50.240;8.596;2022-10-31T00:14:00;5.00;;;3.07;;
3689;SDS011;1861;50.240;8.596;2022-10-31T00:16:28;7.57;;;2.87;;
3689;SDS011;1861;50.240;8.596;2022-10-31T00:18:57;13.60;;;5.00;;
3689;SDS011;1861;50.240;8.596;2022-10-31T00:21:29;6.50;;;3.17;;
3689;SDS011;1861;50.240;8.596;2022-10-31T00:23:58;8.87;;;3.20;;
3689;SDS011;1861;50.240;8.596;2022-10-31T00:26:27;4.10;;;2.50;;
3689;SDS011;1861;50.240;8.596;2022-10-31T00:28:57;5.67;;;2.90;;
3689;SDS011;1861;50.240;8.596;2022-10-31T00:31:26;6.60;;;3.13;;
3689;SDS011;1861;50.240;8.596;2022-10-31T00:33:54;19.47;;;4.47;;
3689;SDS011;1861;50.240;8.596;2022-10-31T00:36:24;8.10;;;2.80;;
3689;SDS011;1861;50.240;8.596;2022-10-31T00:38:53;13.40;;;2.90;;
3689;SDS011;1861;50.240;8.596;2022-10-31T00:41:23;5.30;;;2.93;;
3689;SDS011;1861;50.240;8.596;2022-10-31T00:43:51;6.20;;;2.60;;
3689;SDS011;1861;50.240;8.596;2022-10-31T00:46:19;3.70;;;2.87;;
3689;SDS011;1861;50.240;8.596;2022-10-31T00:48:49;7.57;;;2.60;;
3689;SDS011;1861;50.240;8.596;2022-10-31T00:51:17;6.10;;;2.50;;
3689;SDS011;1861;50.240;8.596;2022-10-31T00:53:45;4.40;;;2.40;;
3689;SDS011;1861;50.240;8.596;2022-10-31T00:56:15;8.57;;;3.07;;
3689;SDS011;1861;50.240;8.596;2022-10-31T00:58:43;5.37;;;2.70;;
3689;SDS011;1861;50.240;8.596;2022-10-31T01:01:11;8.63;;;3.00;;
3689;SDS011;1861;50.240;8.596;2022-10-31T01:03:40;6.63;;;2.40;;
3689;SDS011;1861;50.240;8.596;2022-10-31T01:06:11;6.50;;;2.27;;
3689;SDS011;1861;50.240;8.596;2022-10-31T01:08:40;6.17;;;2.77;;
3689;SDS011;1861;50.240;8.596;2022-10-31T01:11:12;4.10;;;2.37;;
3689;SDS011;1861;50.240;8.596;2022-10-31T01:13:43;10.63;;;2.40;;
3689;SDS011;1861;50.240;8.596;2022-10-31T01:16:12;6.43;;;2.60;;
3689;SDS011;1861;50.240;8.596;2022-10-31T01:18:42;10.63;;;2.50;;
3689;SDS011;1861;50.240;8.596;2022-10-31T01:21:11;7.97;;;3.47;;
3689;SDS011;1861;50.240;8.596;2022-10-31T01:23:40;6.93;;;2.70;;
3689;SDS011;1861;50.240;8.596;2022-10-31T01:26:13;8.20;;;2.53;;
3689;SDS011;1861;50.240;8.596;2022-10-31T01:28:45;9.47;;;2.27;;
3689;SDS011;1861;50.240;8.596;2022-10-31T01:31:15;13.87;;;3.20;;
3689;SDS011;1861;50.240;8.596;2022-10-31T01:33:44;4.23;;;2.30;;
3689;SDS011;1861;50.240;8.596;2022-10-31T01:36:14;7.47;;;3.00;;
3689;SDS011;1861;50.240;8.596;2022-10-31T01:38:44;14.60;;;3.17;;
3689;SDS011;1861;50.240;8.596;2022-10-31T01:41:13;5.13;;;2.00;;
3689;SDS011;1861;50.240;8.596;2022-10-31T01:43:48;10.23;;;2.60;;
3689;SDS011;1861;50.240;8.596;2022-10-31T01:46:19;6.50;;;2.50;;
3689;SDS011;1861;50.240;8.596;2022-10-31T01:48:50;9.37;;;3.20;;
3689;SDS011;1861;50.240;8.596;2022-10-31T01:51:21;5.97;;;3.50;;
3689;SDS011;1861;50.240;8.596;2022-10-31T01:53:52;6.60;;;3.03;;
3689;SDS011;1861;50.240;8.596;2022-10-31T01:56:23;6.80;;;2.50;;
3689;SDS011;1861;50.240;8.596;2022-10-31T01:58:54;8.43;;;3.00;;
3689;SDS011;1861;50.240;8.596;2022-10-31T02:01:23;8.87;;;3.50;;
3689;SDS011;1861;50.240;8.596;2022-10-31T02:03:52;7.93;;;3.10;;
3689;SDS011;1861;50.240;8.596;2022-10-31T02:06:26;10.03;;;3.70;;
3689;SDS011;1861;50.240;8.596;2022-10-31T02:09:00;4.77;;;2.50;;
3689;SDS011;1861;50.240;8.596;2022-10-31T02:11:29;5.07;;;3.00;;
3689;SDS011;1861;50.240;8.596;2022-10-31T02:13:59;5.77;;;3.10;;
3689;SDS011;1861;50.240;8.596;2022-10-31T02:16:29;6.43;;;3.37;;
3689;SDS011;1861;50.240;8.596;2022-10-31T02:18:57;4.00;;;2.80;;
3689;SDS011;1861;50.240;8.596;2022-10-31T02:21:28;12.53;;;3.37;;
3689;SDS011;1861;50.240;8.596;2022-10-31T02:24:12;10.13;;;3.83;;
3689;SDS011;1861;50.240;8.596;2022-10-31T02:27:08;6.53;;;3.10;;
3689;SDS011;1861;50.240;8.596;2022-10-31T02:30:05;11.73;;;3.50;;
3689;SDS011;1861;50.240;8.596;2022-10-31T02:32:51;6.77;;;3.00;;
3689;SDS011;1861;50.240;8.596;2022-10-31T02:35:34;7.53;;;2.60;;
3689;SDS011;1861;50.240;8.596;2022-10-31T02:38:13;6.87;;;3.67;;
3689;SDS011;1861;50.240;8.596;2022-10-31T02:40:51;7.23;;;3.40;;
3689;SDS011;1861;50.240;8.596;2022-10-31T02:43:37;9.27;;;2.80;;
3689;SDS011;1861;50.240;8.596;2022-10-31T02:46:13;9.97;;;3.77;;
3689;SDS011;1861;50.240;8.596;2022-10-31T02:48:48;4.50;;;3.00;;
3689;SDS011;1861;50.240;8.596;2022-10-31T02:51:20;8.27;;;3.10;;
3689;SDS011;1861;50.240;8.596;2022-10-31T02:53:48;8.50;;;3.03;;
3689;SDS011;1861;50.240;8.596;2022-10-31T02:56:18;7.63;;;2.83;;
3689;SDS011;1861;50.240;8.596;2022-10-31T02:58:47;9.80;;;2.80;;
3689;SDS011;1861;50.240;8.596;2022-10-31T03:01:26;7.53;;;3.37;;
3689;SDS011;1861;50.240;8.596;2022-10-31T03:04:07;4.37;;;2.77;;
3689;SDS011;1861;50.240;8.596;2022-10-31T03:06:49;7.93;;;3.20;;
3689;SDS011;1861;50.240;8.596;2022-10-31T03:09:24;12.70;;;3.10;;
3689;SDS011;1861;50.240;8.596;2022-10-31T03:12:01;8.63;;;3.00;;
3689;SDS011;1861;50.240;8.596;2022-10-31T03:14:37;18.20;;;4.10;;
3689;SDS011;1861;50.240;8.596;2022-10-31T03:17:09;9.60;;;3.17;;
3689;SDS011;1861;50.240;8.596;2022-10-31T03:19:47;8.40;;;3.83;;
3689;SDS011;1861;50.240;8.596;2022-10-31T03:22:19;8.33;;;3.17;;
3689;SDS011;1861;50.240;8.596;2022-10-31T03:24:50;6.80;;;3.50;;
3689;SDS011;1861;50.240;8.596;2022-10-31T03:27:21;7.80;;;4.00;;
3689;SDS011;1861;50.240;8.596;2022-10-31T03:29:52;7.37;;;3.13;;
3689;SDS011;1861;50.240;8.596;2022-10-31T03:32:23;13.83;;;3.20;;
3689;SDS011;1861;50.240;8.596;2022-10-31T03:34:58;9.80;;;4.37;;
3689;SDS011;1861;50.240;8.596;2022-10-31T03:37:29;9.90;;;3.93;;
3689;SDS011;1861;50.240;8.596;2022-10-31T03:40:01;9.30;;;4.20;;
3689;SDS011;1861;50.240;8.596;2022-10-31T03:42:34;7.10;;;2.67;;
3689;SDS011;1861;50.240;8.596;2022-10-31T03:45:07;5.47;;;3.03;;
3689;SDS011;1861;50.240;8.596;2022-10-31T03:47:39;12.63;;;3.00;;
3689;SDS011;1861;50.240;8.596;2022-10-31T03:50:12;5.47;;;3.53;;
3689;SDS011;1861;50.240;8.596;2022-10-31T03:52:45;13.93;;;3.40;;
3689;SDS011;1861;50.240;8.596;2022-10-31T03:55:18;9.43;;;3.70;;
3689;SDS011;1861;50.240;8.596;2022-10-31T03:57:51;8.35;;;3.38;;
3689;SDS011;1861;50.240;8.596;2022-10-31T04:00:25;6.93;;;2.80;;
3689;SDS011;1861;50.240;8.596;2022-10-31T04:02:55;14.13;;;4.70;;
3689;SDS011;1861;50.240;8.596;2022-10-31T04:05:31;10.07;;;3.90;;
3689;SDS011;1861;50.240;8.596;2022-10-31T04:08:02;7.97;;;4.30;;
3689;SDS011;1861;50.240;8.596;2022-10-31T04:10:32;6.73;;;2.90;;
3689;SDS011;1861;50.240;8.596;2022-10-31T04:13:03;7.50;;;3.47;;
3689;SDS011;1861;50.240;8.596;2022-10-31T04:15:57;6.73;;;2.87;;
3689;SDS011;1861;50.240;8.596;2022-10-31T04:18:28;5.90;;;2.93;;
3689;SDS011;1861;50.240;8.596;2022-10-31T04:21:01;3.80;;;2.73;;
3689;SDS011;1861;50.240;8.596;2022-10-31T04:23:31;12.50;;;3.03;;
3689;SDS011;1861;50.240;8.596;2022-10-31T04:26:07;10.27;;;3.00;;
3689;SDS011;1861;50.240;8.596;2022-10-31T04:28:37;9.23;;;3.10;;
3689;SDS011;1861;50.240;8.596;2022-10-31T04:31:06;9.70;;;3.30;;
3689;SDS011;1861;50.240;8.596;2022-10-31T04:33:36;6.03;;;3.07;;
3689;SDS011;1861;50.240;8.596;2022-10-31T04:36:06;8.27;;;3.57;;
3689;SDS011;1861;50.240;8.596;2022-10-31T04:38:34;9.17;;;2.80;;
3689;SDS011;1861;50.240;8.596;2022-10-31T04:41:10;10.43;;;2.87;;
3689;SDS011;1861;50.240;8.596;2022-10-31T04:43:49;10.10;;;3.60;;
3689;SDS011;1861;50.240;8.596;2022-10-31T04:46:18;7.00;;;3.43;;
3689;SDS011;1861;50.240;8.596;2022-10-31T04:48:46;7.83;;;3.37;;
3689;SDS011;1861;50.240;8.596;2022-10-31T04:51:16;4.70;;;3.13;;
3689;SDS011;1861;50.240;8.596;2022-10-31T04:53:44;7.63;;;3.37;;
3689;SDS011;1861;50.240;8.596;2022-10-31T04:56:39;4.50;;;3.10;;
3689;SDS011;1861;50.240;8.596;2022-10-31T04:59:14;13.23;;;3.30;;
3689;SDS011;1861;50.240;8.596;2022-10-31T05:01:48;4.80;;;3.20;;
3689;SDS011;1861;50.240;8.596;2022-10-31T05:04:21;6.73;;;3.37;;
3689;SDS011;1861;50.240;8.596;2022-10-31T05:06:50;8.93;;;3.30;;
3689;SDS011;1861;50.240;8.596;2022-10-31T05:09:19;9.00;;;3.33;;
3689;SDS011;1861;50.240;8.596;2022-10-31T05:11:47;6.27;;;3.70;;
3689;SDS011;1861;50.240;8.596;2022-10-31T05:14:37;8.70;;;3.40;;
3689;SDS011;1861;50.240;8.596;2022-10-31T05:17:28;10.57;;;3.47;;
3689;SDS011;1861;50.240;8.596;2022-10-31T05:20:19;8.30;;;3.27;;
3689;SDS011;1861;50.240;8.596;2022-10-31T05:23:26;10.87;;;4.10;;
3689;SDS011;1861;50.240;8.596;2022-10-31T05:25:54;10.13;;;2.97;;
3689;SDS011;1861;50.240;8.596;2022-10-31T05:28:22;14.23;;;3.20;;
3689;SDS011;1861;50.240;8.596;2022-10-31T05:30:50;7.50;;;3.20;;
3689;SDS011;1861;50.240;8.596;2022-10-31T05:33:20;15.00;;;3.30;;
3689;SDS011;1861;50.240;8.596;2022-10-31T05:36:06;11.30;;;3.23;;
3689;SDS011;1861;50.240;8.596;2022-10-31T05:38:49;10.63;;;2.60;;
3689;SDS011;1861;50.240;8.596;2022-10-31T05:41:43;9.83;;;3.43;;
3689;SDS011;1861;50.240;8.596;2022-10-31T05:44:18;8.03;;;3.10;;
3689;SDS011;1861;50.240;8.596;2022-10-31T05:47:09;6.60;;;2.97;;
3689;SDS011;1861;50.240;8.596;2022-10-31T05:49:55;8.60;;;3.90;;
3689;SDS011;1861;50.240;8.596;2022-10-31T05:52:23;7.60;;;3.00;;
3689;SDS011;1861;50.240;8.596;2022-10-31T05:55:04;13.10;;;4.47;;
3689;SDS011;1861;50.240;8.596;2022-10-31T05:57:33;5.93;;;2.80;;
3689;SDS011;1861;50.240;8.596;2022-10-31T06:00:01;9.87;;;3.80;;
3689;SDS011;1861;50.240;8.596;2022-10-31T06:02:33;4.87;;;3.47;;
3689;SDS011;1861;50.240;8.596;2022-10-31T06:05:18;4.60;;;2.83;;
3689;SDS011;1861;50.240;8.596;2022-10-31T06:07:46;13.77;;;3.83;;
3689;SDS011;1861;50.240;8.596;2022-10-31T06:10:16;11.13;;;4.17;;
3689;SDS011;1861;50.240;8.596;2022-10-31T06:12:47;7.10;;;3.80;;
3689;SDS011;1861;50.240;8.596;2022-10-31T06:15:21;7.70;;;3.27;;
3689;SDS011;1861;50.240;8.596;2022-10-31T06:17:58;7.17;;;3.60;;
3689;SDS011;1861;50.240;8.596;2022-10-31T06:20:32;6.17;;;3.53;;
3689;SDS011;1861;50.240;8.596;2022-10-31T06:23:02;8.83;;;3.23;;
3689;SDS011;1861;50.240;8.596;2022-10-31T06:25:33;8.60;;;3.50;;
3689;SDS011;1861;50.240;8.596;2022-10-31T06:28:03;13.10;;;3.07;;
3689;SDS011;1861;50.240;8.596;2022-10-31T06:30:45;10.83;;;2.77;;
3689;SDS011;1861;50.240;8.596;2022-10-31T06:33:14;11.53;;;3.33;;
3689;SDS011;1861;50.240;8.596;2022-10-31T06:35:52;7.90;;;3.90;;
3689;SDS011;1861;50.240;8.596;2022-10-31T06:38:20;8.13;;;3.17;;
3689;SDS011;1861;50.240;8.596;2022-10-31T06:40:50;5.43;;;3.20;;
3689;SDS011;1861;50.240;8.596;2022-10-31T06:43:24;8.00;;;3.50;;
3689;SDS011;1861;50.240;8.596;2022-10-31T06:46:09;4.00;;;2.80;;
3689;SDS011;1861;50.240;8.596;2022-10-31T06:48:47;5.57;;;3.43;;
3689;SDS011;1861;50.240;8.596;2022-10-31T06:51:28;7.63;;;3.30;;
3689;SDS011;1861;50.240;8.596;2022-10-31T06:53:58;7.80;;;3.60;;
3689;SDS011;1861;50.240;8.596;2022-10-31T06:56:27;9.00;;;4.30;;
3689;SDS011;1861;50.240;8.596;2022-10-31T06:58:57;7.40;;;3.97;;
3689;SDS011;1861;50.240;8.596;2022-10-31T07:01:57;8.47;;;4.00;;
3689;SDS011;1861;50.240;8.596;2022-10-31T07:04:25;11.13;;;3.80;;
3689;SDS011;1861;50.240;8.596;2022-10-31T07:06:53;6.90;;;3.20;;
3689;SDS011;1861;50.240;8.596;2022-10-31T07:09:22;9.37;;;4.27;;
3689;SDS011;1861;50.240;8.596;2022-10-31T07:11:52;8.80;;;3.53;;
3689;SDS011;1861;50.240;8.596;2022-10-31T07:14:21;7.17;;;3.10;;
3689;SDS011;1861;50.240;8.596;2022-10-31T07:16:51;9.60;;;3.87;;
3689;SDS011;1861;50.240;8.596;2022-10-31T07:19:25;8.33;;;4.00;;
3689;SDS011;1861;50.240;8.596;2022-10-31T07:21:53;6.30;;;2.80;;
3689;SDS011;1861;50.240;8.596;2022-10-31T07:24:23;5.20;;;4.00;;
3689;SDS011;1861;50.240;8.596;2022-10-31T07:27:27;8.43;;;3.50;;
3689;SDS011;1861;50.240;8.596;2022-10-31T07:29:56;7.17;;;3.73;;
3689;SDS011;1861;50.240;8.596;2022-10-31T07:32:25;6.77;;;3.90;;
3689;SDS011;1861;50.240;8.596;2022-10-31T07:34:56;9.27;;;3.17;;
3689;SDS011;1861;50.240;8.596;2022-10-31T07:37:32;3.73;;;3.07;;
3689;SDS011;1861;50.240;8.596;2022-10-31T07:40:01;7.97;;;3.23;;
3689;SDS011;1861;50.240;8.596;2022-10-31T07:42:35;5.60;;;3.20;;
3689;SDS011;1861;50.240;8.596;2022-10-31T07:45:04;6.70;;;3.60;;
3689;SDS011;1861;50.240;8.596;2022-10-31T07:47:52;9.90;;;3.93;;
3689;SDS011;1861;50.240;8.596;2022-10-31T07:50:39;5.60;;;3.17;;
3689;SDS011;1861;50.240;8.596;2022-10-31T07:53:26;14.57;;;3.37;;
3689;SDS011;1861;50.240;8.596;2022-10-31T07:56:01;10.93;;;3.70;;
3689;SDS011;1861;50.240;8.596;2022-10-31T07:58:30;8.03;;;3.77;;
3689;SDS011;1861;50.240;8.596;2022-10-31T08:00:59;10.30;;;4.10;;
3689;SDS011;1861;50.240;8.596;2022-10-31T08:03:37;10.70;;;4.20;;
3689;SDS011;1861;50.240;8.596;2022-10-31T08:06:23;11.00;;;5.40;;
3689;SDS011;1861;50.240;8.596;2022-10-31T08:09:09;12.00;;;4.70;;
3689;SDS011;1861;50.240;8.596;2022-10-31T08:11:38;16.83;;;5.07;;
3689;SDS011;1861;50.240;8.596;2022-10-31T08:14:08;13.07;;;5.97;;
3689;SDS011;1861;50.240;8.596;2022-10-31T08:16:36;11.30;;;5.43;;
3689;SDS011;1861;50.240;8.596;2022-10-31T08:19:06;6.97;;;4.47;;
3689;SDS011;1861;50.240;8.596;2022-10-31T08:21:37;17.27;;;5.20;;
3689;SDS011;1861;50.240;8.596;2022-10-31T08:24:07;11.93;;;5.37;;
3689;SDS011;1861;50.240;8.596;2022-10-31T08:26:35;10.10;;;4.90;;
3689;SDS011;1861;50.240;8.596;2022-10-31T08:29:08;9.70;;;5.47;;
3689;SDS011;1861;50.240;8.596;2022-10-31T08:31:37;8.63;;;4.27;;
3689;SDS011;1861;50.240;8.596;2022-10-31T08:34:44;11.47;;;4.50;;
3689;SDS011;1861;50.240;8.596;2022-10-31T08:37:30;12.10;;;4.80;;
3689;SDS011;1861;50.240;8.596;2022-10-31T08:39:58;8.83;;;5.23;;
3689;SDS011;1861;50.240;8.596;2022-10-31T08:42:32;8.90;;;5.03;;
3689;SDS011;1861;50.240;8.596;2022-10-31T08:45:02;10.83;;;5.00;;
3689;SDS011;1861;50.240;8.596;2022-10-31T08:47:31;21.20;;;6.30;;
3689;SDS011;1861;50.240;8.596;2022-10-31T08:50:00;11.40;;;5.53;;
3689;SDS011;1861;50.240;8.596;2022-10-31T08:52:28;8.23;;;5.33;;
3689;SDS011;1861;50.240;8.596;2022-10-31T08:55:16;8.93;;;4.93;;
3689;SDS011;1861;50.240;8.596;2022-10-31T08:58:02;16.77;;;5.70;;
3689;SDS011;1861;50.240;8.596;2022-10-31T09:00:41;14.70;;;6.20;;
3689;SDS011;1861;50.240;8.596;2022-10-31T09:03:18;10.63;;;5.03;;
3689;SDS011;1861;50.240;8.596;2022-10-31T09:05:48;14.63;;;5.60;;
3689;SDS011;1861;50.240;8.596;2022-10-31T09:08:16;11.88;;;4.80;;
3689;SDS011;1861;50.240;8.596;2022-10-31T09:10:46;10.70;;;5.87;;
3689;SDS011;1861;50.240;8.596;2022-10-31T09:13:20;12.70;;;5.65;;
3689;SDS011;1861;50.240;8.596;2022-10-31T09:16:26;9.27;;;4.97;;
3689;SDS011;1861;50.240;8.596;2022-10-31T09:18:54;10.83;;;4.50;;
3689;SDS011;1861;50.240;8.596;2022-10-31T09:21:22;30.93;;;6.87;;
3689;SDS011;1861;50.240;8.596;2022-10-31T09:23:52;33.07;;;8.77;;
3689;SDS011;1861;50.240;8.596;2022-10-31T09:26:20;15.50;;;5.53;;
3689;SDS011;1861;50.240;8.596;2022-10-31T09:29:03;14.10;;;5.03;;
3689;SDS011;1861;50.240;8.596;2022-10-31T09:31:33;11.20;;;4.70;;
3689;SDS011;1861;50.240;8.596;2022-10-31T09:34:16;20.60;;;6.07;;
3689;SDS011;1861;50.240;8.596;2022-10-31T09:36:59;21.53;;;6.03;;
3689;SDS011;1861;50.240;8.596;2022-10-31T09:39:27;13.17;;;5.37;;
3689;SDS011;1861;50.240;8.596;2022-10-31T09:44:59;17.93;;;5.50;;
3689;SDS011;1861;50.240;8.596;2022-10-31T09:47:40;16.77;;;5.13;;
3689;SDS011;1861;50.240;8.596;2022-10-31T09:50:32;14.40;;;4.93;;
3689;SDS011;1861;50.240;8.596;2022-10-31T09:53:30;17.67;;;6.30;;
3689;SDS011;1861;50.240;8.596;2022-10-31T09:56:04;9.50;;;5.07;;
3689;SDS011;1861;50.240;8.596;2022-10-31T09:58:37;11.03;;;5.80;;
3689;SDS011;1861;50.240;8.596;2022-10-31T10:01:14;10.87;;;4.83;;
3689;SDS011;1861;50.240;8.596;2022-10-31T10:03:53;12.00;;;5.07;;
3689;SDS011;1861;50.240;8.596;2022-10-31T10:06:44;10.53;;;5.73;;
3689;SDS011;1861;50.240;8.596;2022-10-31T10:09:35;17.60;;;6.50;;
3689;SDS011;1861;50.240;8.596;2022-10-31T10:12:28;8.67;;;5.40;;
3689;SDS011;1861;50.240;8.596;2022-10-31T10:18:05;10.95;;;5.78;;
3689;SDS011;1861;50.240;8.596;2022-10-31T10:20:43;14.60;;;7.00;;
3689;SDS011;1861;50.240;8.596;2022-10-31T10:23:29;11.57;;;6.43;;
3689;SDS011;1861;50.240;8.596;2022-10-31T10:26:05;12.70;;;6.78;;
3689;SDS011;1861;50.240;8.596;2022-10-31T10:28:43;14.35;;;6.55;;
3689;SDS011;1861;50.240;8.596;2022-10-31T10:31:15;14.03;;;6.27;;
3689;SDS011;1861;50.240;8.596;2022-10-31T10:33:47;14.03;;;5.90;;
3689;SDS011;1861;50.240;8.596;2022-10-31T10:36:28;11.85;;;5.28;;
3689;SDS011;1861;50.240;8.596;2022-10-31T10:39:03;12.00;;;5.47;;
3689;SDS011;1861;50.240;8.596;2022-10-31T10:41:35;15.37;;;5.07;;
3689;SDS011;1861;50.240;8.596;2022-10-31T10:44:07;12.80;;;5.23;;
3689;SDS011;1861;50.240;8.596;2022-10-31T10:46:40;12.20;;;5.10;;
3689;SDS011;1861;50.240;8.596;2022-10-31T10:49:29;8.00;;;4.22;;
3689;SDS011;1861;50.240;8.596;2022-10-31T10:52:05;12.27;;;5.30;;
3689;SDS011;1861;50.240;8.596;2022-10-31T10:55:03;10.50;;;5.30;;
3689;SDS011;1861;50.240;8.596;2022-10-31T10:57:43;9.97;;;4.73;;
3689;SDS011;1861;50.240;8.596;2022-10-31T11:00:21;15.32;;;5.60;;
3689;SDS011;1861;50.240;8.596;2022-10-31T11:02:51;8.45;;;4.40;;
3689;SDS011;1861;50.240;8.596;2022-10-31T11:05:24;9.35;;;4.97;;
3689;SDS011;1861;50.240;8.596;2022-10-31T11:07:56;9.43;;;4.57;;
3689;SDS011;1861;50.240;8.596;2022-10-31T11:10:24;21.08;;;4.85;;
3689;SDS011;1861;50.240;8.596;2022-10-31T11:13:04;8.52;;;4.50;;
3689;SDS011;1861;50.240;8.596;2022-10-31T11:15:53;8.40;;;4.50;;
3689;SDS011;1861;50.240;8.596;2022-10-31T11:18:25;11.05;;;4.95;;
3689;SDS011;1861;50.240;8.596;2022-10-31T11:20:56;12.27;;;4.35;;
3689;SDS011;1861;50.240;8.596;2022-10-31T11:23:26;7.78;;;4.85;;
3689;SDS011;1861;50.240;8.596;2022-10-31T11:25:56;13.88;;;4.43;;
3689;SDS011;1861;50.240;8.596;2022-10-31T11:28:26;12.48;;;5.47;;
3689;SDS011;1861;50.240;8.596;2022-10-31T11:30:57;19.65;;;4.80;;
3689;SDS011;1861;50.240;8.596;2022-10-31T11:33:28;10.98;;;4.32;;
3689;SDS011;1861;50.240;8.596;2022-10-31T11:35:58;12.57;;;4.35;;
3689;SDS011;1861;50.240;8.596;2022-10-31T11:38:31;9.80;;;5.37;;
3689;SDS011;1861;50.240;8.596;2022-10-31T11:41:06;8.03;;;4.33;;
3689;SDS011;1861;50.240;8.596;2022-10-31T11:43:39;12.43;;;4.57;;
3689;SDS011;1861;50.240;8.596;2022-10-31T11:46:17;9.32;;;3.85;;
3689;SDS011;1861;50.240;8.596;2022-10-31T11:48:49;9.63;;;4.07;;
3689;SDS011;1861;50.240;8.596;2022-10-31T11:51:20;12.52;;;4.25;;
3689;SDS011;1861;50.240;8.596;2022-10-31T11:53:52;10.07;;;4.30;;
3689;SDS011;1861;50.240;8.596;2022-10-31T11:56:36;12.27;;;4.82;;
3689;SDS011;1861;50.240;8.596;2022-10-31T11:59:06;6.90;;;3.45;;
3689;SDS011;1861;50.240;8.596;2022-10-31T12:01:46;8.23;;;3.50;;
3689;SDS011;1861;50.240;8.596;2022-10-31T12:04:15;11.80;;;3.60;;
3689;SDS011;1861;50.240;8.596;2022-10-31T12:06:44;9.35;;;3.97;;
3689;SDS011;1861;50.240;8.596;2022-10-31T12:09:18;7.70;;;4.00;;
3689;SDS011;1861;50.240;8.596;2022-10-31T12:11:52;7.27;;;3.20;;
3689;SDS011;1861;50.240;8.596;2022-10-31T12:14:41;12.27;;;3.67;;
3689;SDS011;1861;50.240;8.596;2022-10-31T12:17:18;4.15;;;2.72;;
3689;SDS011;1861;50.240;8.596;2022-10-31T12:19:54;9.63;;;3.07;;
3689;SDS011;1861;50.240;8.596;2022-10-31T12:22:33;10.67;;;4.93;;
3689;SDS011;1861;50.240;8.596;2022-10-31T12:25:16;5.63;;;3.60;;
3689;SDS011;1861;50.240;8.596;2022-10-31T12:30:55;6.00;;;3.53;;
3689;SDS011;1861;50.240;8.596;2022-10-31T12:33:34;11.70;;;3.87;;
3689;SDS011;1861;50.240;8.596;2022-10-31T12:36:17;6.18;;;4.28;;
3689;SDS011;1861;50.240;8.596;2022-10-31T12:42:07;13.40;;;4.73;;
3689;SDS011;1861;50.240;8.596;2022-10-31T12:44:44;8.23;;;4.40;;
3689;SDS011;1861;50.240;8.596;2022-10-31T12:47:40;12.30;;;3.90;;
3689;SDS011;1861;50.240;8.596;2022-10-31T12:50:24;13.00;;;5.60;;
3689;SDS011;1861;50.240;8.596;2022-10-31T12:53:10;5.97;;;3.47;;
3689;SDS011;1861;50.240;8.596;2022-10-31T12:55:50;6.80;;;3.20;;
3689;SDS011;1861;50.240;8.596;2022-10-31T12:58:29;6.63;;;3.13;;
3689;SDS011;1861;50.240;8.596;2022-10-31T13:01:03;9.32;;;3.45;;
3689;SDS011;1861;50.240;8.596;2022-10-31T13:03:38;4.83;;;3.40;;
3689;SDS011;1861;50.240;8.596;2022-10-31T13:06:13;12.33;;;4.17;;
3689;SDS011;1861;50.240;8.596;2022-10-31T13:08:45;9.15;;;3.75;;
3689;SDS011;1861;50.240;8.596;2022-10-31T13:11:17;5.50;;;3.53;;
3689;SDS011;1861;50.240;8.596;2022-10-31T13:13:52;7.57;;;3.03;;
3689;SDS011;1861;50.240;8.596;2022-10-31T13:16:25;9.68;;;3.67;;
3689;SDS011;1861;50.240;8.596;2022-10-31T13:18:58;11.68;;;4.30;;
3689;SDS011;1861;50.240;8.596;2022-10-31T13:21:33;16.55;;;3.55;;
3689;SDS011;1861;50.240;8.596;2022-10-31T13:24:07;11.40;;;3.97;;
3689;SDS011;1861;50.240;8.596;2022-10-31T13:26:42;7.57;;;3.85;;
3689;SDS011;1861;50.240;8.596;2022-10-31T13:29:17;9.20;;;3.30;;
3689;SDS011;1861;50.240;8.596;2022-10-31T13:31:53;6.00;;;2.90;;
3689;SDS011;1861;50.240;8.596;2022-10-31T13:34:23;7.57;;;3.22;;
3689;SDS011;1861;50.240;8.596;2022-10-31T13:36:58;6.80;;;3.07;;
3689;SDS011;1861;50.240;8.596;2022-10-31T13:39:44;9.60;;;3.53;;
3689;SDS011;1861;50.240;8.596;2022-10-31T13:42:19;12.20;;;3.65;;
3689;SDS011;1861;50.240;8.596;2022-10-31T13:44:54;7.20;;;3.40;;
3689;SDS011;1861;50.240;8.596;2022-10-31T13:47:24;9.67;;;3.00;;
3689;SDS011;1861;50.240;8.596;2022-10-31T13:50:03;9.00;;;3.47;;
3689;SDS011;1861;50.240;8.596;2022-10-31T13:52:33;8.17;;;3.50;;
3689;SDS011;1861;50.240;8.596;2022-10-31T13:55:01;6.15;;;2.90;;
3689;SDS011;1861;50.240;8.596;2022-10-31T13:57:30;13.95;;;4.05;;
3689;SDS011;1861;50.240;8.596;2022-10-31T14:00:03;6.07;;;3.10;;
3689;SDS011;1861;50.240;8.596;2022-10-31T14:02:44;11.77;;;3.75;;
3689;SDS011;1861;50.240;8.596;2022-10-31T14:05:19;8.48;;;3.25;;
3689;SDS011;1861;50.240;8.596;2022-10-31T14:07:51;11.63;;;3.10;;
3689;SDS011;1861;50.240;8.596;2022-10-31T14:10:21;5.15;;;2.95;;
3689;SDS011;1861;50.240;8.596;2022-10-31T14:12:53;8.15;;;3.20;;
3689;SDS011;1861;50.240;8.596;2022-10-31T14:15:32;7.82;;;3.28;;
3689;SDS011;1861;50.240;8.596;2022-10-31T14:18:02;9.88;;;3.08;;
3689;SDS011;1861;50.240;8.596;2022-10-31T14:20:34;6.17;;;3.57;;
3689;SDS011;1861;50.240;8.596;2022-10-31T14:26:07;7.53;;;2.97;;
3689;SDS011;1861;50.240;8.596;2022-10-31T14:28:57;12.60;;;3.77;;
3689;SDS011;1861;50.240;8.596;2022-10-31T14:31:32;5.67;;;3.27;;
3689;SDS011;1861;50.240;8.596;2022-10-31T14:34:06;6.23;;;3.20;;
3689;SDS011;1861;50.240;8.596;2022-10-31T14:36:50;7.18;;;2.92;;
3689;SDS011;1861;50.240;8.596;2022-10-31T14:39:42;6.40;;;3.50;;
3689;SDS011;1861;50.240;8.596;2022-10-31T14:42:23;6.23;;;3.43;;
3689;SDS011;1861;50.240;8.596;2022-10-31T14:45:05;11.13;;;3.07;;
3689;SDS011;1861;50.240;8.596;2022-10-31T14:48:06;5.40;;;2.73;;
3689;SDS011;1861;50.240;8.596;2022-10-31T14:50:47;9.50;;;3.03;;
3689;SDS011;1861;50.240;8.596;2022-10-31T14:53:19;6.32;;;3.25;;
3689;SDS011;1861;50.240;8.596;2022-10-31T14:55:50;5.85;;;2.88;;
3689;SDS011;1861;50.240;8.596;2022-10-31T14:58:21;7.60;;;2.97;;
3689;SDS011;1861;50.240;8.596;2022-10-31T15:00:53;9.60;;;3.47;;
3689;SDS011;1861;50.240;8.596;2022-10-31T15:03:26;8.95;;;3.58;;
3689;SDS011;1861;50.240;8.596;2022-10-31T15:05:59;9.03;;;3.83;;
3689;SDS011;1861;50.240;8.596;2022-10-31T15:08:34;7.10;;;3.67;;
3689;SDS011;1861;50.240;8.596;2022-10-31T15:11:11;8.83;;;3.40;;
3689;SDS011;1861;50.240;8.596;2022-10-31T15:13:43;6.13;;;3.20;;
3689;SDS011;1861;50.240;8.596;2022-10-31T15:16:13;8.33;;;3.70;;
3689;SDS011;1861;50.240;8.596;2022-10-31T15:18:47;8.40;;;3.33;;
3689;SDS011;1861;50.240;8.596;2022-10-31T15:21:19;6.43;;;3.45;;
3689;SDS011;1861;50.240;8.596;2022-10-31T15:23:49;4.85;;;3.17;;
3689;SDS011;1861;50.240;8.596;2022-10-31T15:26:21;8.25;;;2.97;;
3689;SDS011;1861;50.240;8.596;2022-10-31T15:28:57;4.63;;;3.22;;
3689;SDS011;1861;50.240;8.596;2022-10-31T15:31:28;10.60;;;4.70;;
3689;SDS011;1861;50.240;8.596;2022-10-31T15:33:59;7.38;;;4.00;;
3689;SDS011;1861;50.240;8.596;2022-10-31T15:36:31;11.33;;;3.30;;
3689;SDS011;1861;50.240;8.596;2022-10-31T15:39:03;10.85;;;3.60;;
3689;SDS011;1861;50.240;8.596;2022-10-31T15:41:33;10.93;;;3.37;;
3689;SDS011;1861;50.240;8.596;2022-10-31T15:44:10;11.15;;;4.75;;
3689;SDS011;1861;50.240;8.596;2022-10-31T15:46:41;8.30;;;3.50;;
3689;SDS011;1861;50.240;8.596;2022-10-31T15:49:15;7.93;;;3.50;;
3689;SDS011;1861;50.240;8.596;2022-10-31T15:51:52;10.40;;;3.87;;
3689;SDS011;1861;50.240;8.596;2022-10-31T15:54:21;10.57;;;3.53;;
3689;SDS011;1861;50.240;8.596;2022-10-31T15:56:49;4.73;;;3.13;;
3689;SDS011;1861;50.240;8.596;2022-10-31T15:59:19;10.23;;;3.80;;
3689;SDS011;1861;50.240;8.596;2022-10-31T16:02:00;12.57;;;3.33;;
3689;SDS011;1861;50.240;8.596;2022-10-31T16:04:31;9.97;;;3.97;;
3689;SDS011;1861;50.240;8.596;2022-10-31T16:07:00;10.93;;;4.72;;
3689;SDS011;1861;50.240;8.596;2022-10-31T16:09:29;10.20;;;3.53;;
3689;SDS011;1861;50.240;8.596;2022-10-31T16:11:57;12.38;;;4.13;;